Time;durP1;ratioP1;P1;durP2;ratioP2;P2;SDS_P1;SDS_P2;PMS_P1;PMS_P2;Temp;Humidity;BMP_temperature;BMP_pressure;BME280_temperature;BME280_humidity;BME280_pressure;Samples;Min_cycle;Max_cycle;Signal;HPM_P1;HPM_P2
2021/08/23 00:00:57;;;;;;;2.65;2.40;;;21.30;66.70;;;;;;3165320;28;20126;-88
2021/08/23 00:02:29;;;;;;;2.47;2.10;;;21.30;66.70;;;;;;3171910;27;20051;-87
2021/08/23 00:04:00;;;;;;;2.50;2.30;;;21.30;66.60;;;;;;3170170;28;20430;-88
2021/08/23 00:05:32;;;;;;;2.70;2.17;;;21.30;66.50;;;;;;3159007;28;20051;-88
2021/08/23 00:07:04;;;;;;;2.75;2.33;;;21.40;66.60;;;;;;3159178;28;20491;-87
2021/08/23 00:08:37;;;;;;;4.87;2.77;;;21.30;66.50;;;;;;3158948;28;20076;-87
2021/08/23 00:10:10;;;;;;;2.63;2.40;;;21.30;66.40;;;;;;3158985;28;20043;-87
2021/08/23 00:11:42;;;;;;;2.72;2.50;;;21.30;66.50;;;;;;3161333;28;20044;-86
2021/08/23 00:13:13;;;;;;;2.67;2.40;;;21.30;66.60;;;;;;3171123;28;20043;-88
2021/08/23 00:14:45;;;;;;;3.78;2.03;;;21.30;66.40;;;;;;3171167;28;20055;-88
2021/08/23 00:16:17;;;;;;;2.38;2.17;;;21.30;66.50;;;;;;3170758;28;20498;-88
2021/08/23 00:17:48;;;;;;;2.47;2.28;;;21.30;66.50;;;;;;3172411;28;20055;-88
2021/08/23 00:19:20;;;;;;;2.60;2.40;;;21.30;66.50;;;;;;3171182;27;20104;-88
2021/08/23 00:20:55;;;;;;;2.45;2.17;;;21.30;66.40;;;;;;3165128;27;20073;-88
2021/08/23 00:22:31;;;;;;;2.30;2.10;;;21.30;66.50;;;;;;3177504;27;20051;-88
2021/08/23 00:24:06;;;;;;;2.97;2.40;;;21.20;66.60;;;;;;3163682;28;20486;-88
2021/08/23 00:25:37;;;;;;;2.85;2.47;;;21.30;66.60;;;;;;3164642;27;20479;-87
2021/08/23 00:27:09;;;;;;;2.88;2.35;;;21.30;66.50;;;;;;3161761;28;20054;-88
2021/08/23 00:28:41;;;;;;;2.80;2.50;;;21.30;66.50;;;;;;3171605;28;20391;-87
2021/08/23 00:30:13;;;;;;;2.30;2.10;;;21.30;66.60;;;;;;3163041;28;20044;-88
2021/08/23 00:31:44;;;;;;;2.33;2.13;;;21.30;66.50;;;;;;3159099;28;20055;-87
2021/08/23 00:33:16;;;;;;;3.15;2.45;;;21.30;66.50;;;;;;3162797;28;20045;-88
2021/08/23 00:34:48;;;;;;;2.67;2.17;;;21.30;66.50;;;;;;3171671;28;20054;-88
2021/08/23 00:36:20;;;;;;;4.13;2.45;;;21.30;66.40;;;;;;3170827;28;20048;-88
2021/08/23 00:37:53;;;;;;;2.63;2.25;;;21.30;66.40;;;;;;3171853;28;20084;-88
2021/08/23 00:39:26;;;;;;;2.45;2.25;;;21.30;66.40;;;;;;3163547;28;20130;-87
2021/08/23 00:40:57;;;;;;;2.55;2.15;;;21.30;66.40;;;;;;3161154;28;20510;-88
2021/08/23 00:42:29;;;;;;;2.50;2.30;;;21.20;66.40;;;;;;3159534;28;20485;-87
2021/08/23 00:44:01;;;;;;;2.45;2.20;;;21.30;66.40;;;;;;3171486;28;20290;-88
2021/08/23 00:45:33;;;;;;;2.40;2.20;;;21.20;66.30;;;;;;3159915;28;20097;-88
2021/08/23 00:47:06;;;;;;;3.97;2.55;;;21.30;66.40;;;;;;3159246;28;20101;-88
2021/08/23 00:48:37;;;;;;;2.58;2.35;;;21.30;66.40;;;;;;3168209;28;20043;-88
2021/08/23 00:50:10;;;;;;;2.85;2.38;;;21.20;66.40;;;;;;3170386;28;20039;-88
2021/08/23 00:51:42;;;;;;;2.78;2.30;;;21.20;66.40;;;;;;3168774;28;20572;-88
2021/08/23 00:53:12;;;;;;;2.30;2.10;;;21.20;66.40;;;;;;3169698;28;20040;-88
2021/08/23 00:54:45;;;;;;;2.50;2.30;;;21.20;66.40;;;;;;3165996;28;20602;-88
2021/08/23 00:56:16;;;;;;;2.50;2.30;;;21.20;66.50;;;;;;3168754;27;20047;-88
2021/08/23 00:57:48;;;;;;;2.80;2.50;;;21.20;66.50;;;;;;3171501;28;20121;-88
2021/08/23 00:59:20;;;;;;;2.40;2.20;;;21.20;66.40;;;;;;3162789;28;20048;-87
2021/08/23 01:00:55;;;;;;;3.10;2.28;;;21.20;66.40;;;;;;3158207;27;20044;-87
2021/08/23 01:02:28;;;;;;;3.33;2.40;;;21.20;66.40;;;;;;3171236;28;20108;-88
2021/08/23 01:04:03;;;;;;;3.05;2.30;;;21.20;66.40;;;;;;3159049;28;20101;-87
2021/08/23 01:05:34;;;;;;;3.15;2.70;;;21.20;66.40;;;;;;3158060;28;20052;-88
2021/08/23 01:07:07;;;;;;;2.47;2.20;;;21.20;66.40;;;;;;3164311;28;20456;-88
2021/08/23 01:08:39;;;;;;;2.47;2.28;;;21.20;66.50;;;;;;3168239;28;20494;-87
2021/08/23 01:10:15;;;;;;;2.60;2.40;;;21.20;66.40;;;;;;3158506;28;20086;-87
2021/08/23 01:11:50;;;;;;;2.35;2.15;;;21.20;66.30;;;;;;3160897;28;20105;-87
2021/08/23 01:13:22;;;;;;;4.68;2.55;;;21.20;66.20;;;;;;3170902;28;20464;-88
2021/08/23 01:14:54;;;;;;;2.42;2.22;;;21.20;66.30;;;;;;3167316;28;20044;-88
2021/08/23 01:16:26;;;;;;;3.00;2.35;;;21.20;66.30;;;;;;3163122;28;20039;-87
2021/08/23 01:17:57;;;;;;;2.40;2.20;;;21.20;66.30;;;;;;3171296;28;20059;-88
2021/08/23 01:19:29;;;;;;;2.47;2.20;;;21.20;66.30;;;;;;3170454;28;20040;-88
2021/08/23 01:21:03;;;;;;;2.72;2.40;;;21.20;66.30;;;;;;3163280;27;20403;-88
2021/08/23 01:22:37;;;;;;;2.50;2.30;;;21.20;66.30;;;;;;3158554;28;20298;-88
2021/08/23 01:24:10;;;;;;;2.47;2.15;;;21.10;66.40;;;;;;3158222;28;20458;-88
2021/08/23 01:25:43;;;;;;;2.25;2.05;;;21.10;66.40;;;;;;3169621;27;20510;-87
2021/08/23 01:27:14;;;;;;;2.30;2.10;;;21.10;66.40;;;;;;3169337;28;20039;-88
2021/08/23 01:28:50;;;;;;;2.38;2.17;;;21.10;66.50;;;;;;3170444;28;20520;-88
2021/08/23 01:30:21;;;;;;;2.60;2.30;;;21.10;66.40;;;;;;3160010;27;20040;-87
2021/08/23 01:32:02;;;;;;;2.33;2.13;;;21.10;66.30;;;;;;3158660;28;20414;-88
2021/08/23 01:33:33;;;;;;;2.40;2.20;;;21.20;66.30;;;;;;3159104;28;20090;-87
2021/08/23 01:35:06;;;;;;;2.55;2.35;;;21.20;66.30;;;;;;3160306;28;20048;-88
2021/08/23 01:36:38;;;;;;;2.65;2.13;;;21.20;66.20;;;;;;3170914;28;20048;-88
2021/08/23 01:38:10;;;;;;;2.60;2.40;;;21.20;66.20;;;;;;3170327;28;20100;-88
2021/08/23 01:39:40;;;;;;;2.53;2.33;;;21.20;66.20;;;;;;3167618;28;20152;-87
2021/08/23 01:41:12;;;;;;;2.47;2.10;;;21.20;66.20;;;;;;3158598;28;20056;-88
2021/08/23 01:42:44;;;;;;;2.58;2.35;;;21.20;66.30;;;;;;3160944;28;20050;-87
2021/08/23 01:44:15;;;;;;;2.40;2.20;;;21.10;66.20;;;;;;3171293;28;20106;-88
2021/08/23 01:45:46;;;;;;;2.25;2.05;;;21.10;66.30;;;;;;3158243;28;20048;-88
2021/08/23 01:47:19;;;;;;;2.83;2.30;;;21.10;66.30;;;;;;3158513;28;20048;-88
2021/08/23 01:48:50;;;;;;;2.80;2.50;;;21.10;66.40;;;;;;3165565;28;20054;-88
2021/08/23 01:50:22;;;;;;;2.55;2.22;;;21.10;66.30;;;;;;3162702;28;20405;-88
2021/08/23 01:51:54;;;;;;;2.25;2.05;;;21.10;66.30;;;;;;3165788;28;20052;-87
2021/08/23 01:53:25;;;;;;;2.60;2.20;;;21.10;66.30;;;;;;3164934;28;20048;-88
2021/08/23 01:54:57;;;;;;;2.42;2.13;;;21.10;66.30;;;;;;3159629;27;20047;-87
2021/08/23 01:56:29;;;;;;;2.42;2.22;;;21.10;67.00;;;;;;3166310;28;20051;-88
2021/08/23 01:58:02;;;;;;;2.10;1.90;;;21.10;66.30;;;;;;3170816;28;20134;-87
2021/08/23 01:59:33;;;;;;;2.30;2.10;;;21.10;66.20;;;;;;3170977;28;20055;-87
2021/08/23 02:01:05;;;;;;;2.60;2.40;;;21.10;66.30;;;;;;3160902;28;20040;-88
2021/08/23 02:02:38;;;;;;;2.38;2.17;;;21.10;66.20;;;;;;3158509;28;20443;-88
2021/08/23 02:04:10;;;;;;;2.60;2.40;;;21.10;66.20;;;;;;3158556;28;20059;-88
2021/08/23 02:05:42;;;;;;;2.25;2.05;;;21.10;66.30;;;;;;3160869;28;20048;-88
2021/08/23 02:07:13;;;;;;;2.40;2.20;;;21.10;66.30;;;;;;3171147;28;20505;-87
2021/08/23 02:08:45;;;;;;;2.47;2.28;;;21.10;66.30;;;;;;3170682;28;20052;-88
2021/08/23 02:10:17;;;;;;;2.42;2.22;;;21.10;66.20;;;;;;3162705;28;20047;-88
2021/08/23 02:11:49;;;;;;;2.50;2.30;;;21.10;66.20;;;;;;3158397;28;20044;-87
2021/08/23 02:13:20;;;;;;;2.50;2.13;;;21.10;66.20;;;;;;3169245;28;20082;-88
2021/08/23 02:14:52;;;;;;;2.67;2.38;;;21.10;66.30;;;;;;3170996;28;20104;-88
2021/08/23 02:16:24;;;;;;;2.58;2.38;;;21.00;66.20;;;;;;3169668;28;20051;-88
2021/08/23 02:17:57;;;;;;;2.50;2.30;;;21.10;66.20;;;;;;3165181;28;20101;-88
2021/08/23 02:19:29;;;;;;;2.30;2.10;;;21.10;66.20;;;;;;3164415;28;20143;-88
2021/08/23 02:21:00;;;;;;;2.30;2.10;;;21.10;66.20;;;;;;3167239;27;20050;-87
2021/08/23 02:22:32;;;;;;;2.72;2.33;;;21.10;66.20;;;;;;3166847;28;20455;-88
2021/08/23 02:24:04;;;;;;;2.25;2.05;;;21.10;66.20;;;;;;3158497;28;20052;-88
2021/08/23 02:25:36;;;;;;;2.20;2.00;;;21.00;66.20;;;;;;3157792;27;20502;-87
2021/08/23 02:27:07;;;;;;;2.55;2.20;;;21.00;66.20;;;;;;3169161;28;20668;-88
2021/08/23 02:28:38;;;;;;;2.17;1.98;;;21.00;66.20;;;;;;3160223;28;20044;-88
2021/08/23 02:30:10;;;;;;;2.50;2.30;;;21.00;66.10;;;;;;3165609;27;20050;-88
2021/08/23 02:31:42;;;;;;;2.40;2.20;;;21.00;66.10;;;;;;3173144;28;20502;-88
2021/08/23 02:33:15;;;;;;;2.10;1.90;;;21.00;66.10;;;;;;3173362;28;20050;-88
2021/08/23 02:34:47;;;;;;;2.15;1.95;;;21.00;66.20;;;;;;3169831;28;20101;-88
2021/08/23 02:36:19;;;;;;;2.53;2.33;;;21.00;66.20;;;;;;3160119;27;20381;-87
2021/08/23 02:37:50;;;;;;;2.50;2.25;;;21.00;66.20;;;;;;3160588;28;20059;-87
2021/08/23 02:39:21;;;;;;;2.55;2.30;;;21.00;66.20;;;;;;3160771;28;20467;-88
2021/08/23 02:40:53;;;;;;;2.30;2.10;;;21.00;66.20;;;;;;3169177;27;20050;-88
2021/08/23 02:42:24;;;;;;;2.42;2.20;;;21.00;66.10;;;;;;3171650;28;20047;-88
2021/08/23 02:43:56;;;;;;;2.25;2.05;;;21.00;66.20;;;;;;3171907;28;20482;-87
2021/08/23 02:45:28;;;;;;;2.45;2.25;;;21.00;66.10;;;;;;3162357;28;20044;-87
2021/08/23 02:47:00;;;;;;;2.47;2.27;;;21.00;66.20;;;;;;3166607;28;20050;-88
2021/08/23 02:48:32;;;;;;;2.20;2.00;;;21.00;66.80;;;;;;3161974;28;20040;-88
2021/08/23 02:50:04;;;;;;;2.50;2.30;;;21.00;66.10;;;;;;3172501;27;20052;-88
2021/08/23 02:51:36;;;;;;;2.70;2.00;;;21.00;66.10;;;;;;3170373;28;20293;-87
2021/08/23 02:53:06;;;;;;;2.17;1.98;;;21.00;66.10;;;;;;3164353;28;20048;-88
2021/08/23 02:54:38;;;;;;;2.40;2.20;;;21.00;66.20;;;;;;3167195;28;20420;-88
2021/08/23 02:56:10;;;;;;;2.50;2.20;;;21.00;66.10;;;;;;3169507;27;20362;-87
2021/08/23 02:57:41;;;;;;;2.30;2.10;;;21.00;66.10;;;;;;3172796;28;20051;-86
2021/08/23 02:59:12;;;;;;;2.70;2.20;;;21.00;66.10;;;;;;3172099;28;20043;-88
2021/08/23 03:00:44;;;;;;;2.25;2.03;;;21.00;66.10;;;;;;3165445;27;20039;-87
2021/08/23 03:02:16;;;;;;;2.40;2.20;;;21.00;66.10;;;;;;3172509;28;20054;-89
2021/08/23 03:03:49;;;;;;;2.22;2.03;;;21.00;66.10;;;;;;3172366;28;20055;-87
2021/08/23 03:05:21;;;;;;;2.42;2.22;;;21.00;66.10;;;;;;3160809;27;20437;-88
2021/08/23 03:06:52;;;;;;;2.20;2.03;;;21.00;66.70;;;;;;3160257;28;20506;-87
2021/08/23 03:08:24;;;;;;;2.38;2.17;;;21.00;66.10;;;;;;3166063;28;20040;-88
2021/08/23 03:09:56;;;;;;;2.22;2.03;;;20.90;66.00;;;;;;3170789;27;20043;-89
2021/08/23 03:11:30;;;;;;;2.10;1.90;;;21.00;66.10;;;;;;3172334;28;20062;-87
2021/08/23 03:13:02;;;;;;;2.10;1.90;;;21.00;66.00;;;;;;3168655;27;20142;-87
2021/08/23 03:14:32;;;;;;;2.28;2.08;;;21.00;66.00;;;;;;3161056;28;20048;-88
2021/08/23 03:16:04;;;;;;;2.53;2.33;;;20.90;65.90;;;;;;3171421;27;20054;-87
2021/08/23 03:17:36;;;;;;;2.40;2.20;;;20.90;66.00;;;;;;3171734;28;20043;-88
2021/08/23 03:19:09;;;;;;;2.20;2.00;;;20.90;66.00;;;;;;3168997;28;21349;-87
2021/08/23 03:20:40;;;;;;;2.30;2.10;;;20.90;66.00;;;;;;3167359;28;20051;-88
2021/08/23 03:22:11;;;;;;;2.30;2.10;;;20.90;66.00;;;;;;3164644;28;20056;-87
2021/08/23 03:23:43;;;;;;;2.35;2.15;;;20.90;66.00;;;;;;3160328;28;20101;-88
2021/08/23 03:25:16;;;;;;;2.70;2.40;;;20.90;66.00;;;;;;3159453;28;21059;-87
2021/08/23 03:26:47;;;;;;;2.10;1.90;;;20.90;66.00;;;;;;3159797;28;20190;-88
2021/08/23 03:28:18;;;;;;;2.15;1.95;;;21.00;66.10;;;;;;3159392;28;20048;-88
2021/08/23 03:29:51;;;;;;;2.10;1.90;;;20.90;65.90;;;;;;3159742;28;20044;-88
2021/08/23 03:31:23;;;;;;;2.47;2.28;;;20.90;65.90;;;;;;3158438;28;20056;-88
2021/08/23 03:32:54;;;;;;;2.33;2.13;;;20.90;66.00;;;;;;3159853;28;20078;-87
2021/08/23 03:34:27;;;;;;;2.30;2.10;;;21.00;66.00;;;;;;3160029;28;20465;-87
2021/08/23 03:35:59;;;;;;;2.40;2.20;;;20.90;66.00;;;;;;3160680;28;20055;-88
2021/08/23 03:37:31;;;;;;;2.30;2.08;;;20.90;66.00;;;;;;3171704;28;20036;-87
2021/08/23 03:39:02;;;;;;;2.22;2.03;;;20.90;66.00;;;;;;3171466;28;20089;-88
2021/08/23 03:40:33;;;;;;;2.28;2.08;;;20.90;66.00;;;;;;3162934;27;20494;-87
2021/08/23 03:42:05;;;;;;;2.17;1.98;;;20.90;65.90;;;;;;3159675;28;20044;-88
2021/08/23 03:43:36;;;;;;;2.30;2.10;;;20.90;65.90;;;;;;3169581;28;20055;-87
2021/08/23 03:45:08;;;;;;;2.20;2.00;;;20.90;66.00;;;;;;3164194;28;20506;-87
2021/08/23 03:46:43;;;;;;;2.17;1.98;;;20.90;66.00;;;;;;3159716;28;20048;-88
2021/08/23 03:48:14;;;;;;;2.10;2.00;;;20.90;66.00;;;;;;3159429;28;20306;-88
2021/08/23 03:49:47;;;;;;;2.20;2.00;;;20.90;65.90;;;;;;3167037;28;20402;-88
2021/08/23 03:51:19;;;;;;;2.15;2.00;;;20.90;65.90;;;;;;3163395;28;20452;-88
2021/08/23 03:52:51;;;;;;;2.30;2.10;;;20.90;65.90;;;;;;3162096;28;20040;-88
2021/08/23 03:54:23;;;;;;;2.30;2.10;;;20.90;65.90;;;;;;3167286;28;20512;-87
2021/08/23 03:55:54;;;;;;;2.25;2.05;;;20.90;65.90;;;;;;3168447;28;20176;-87
2021/08/23 03:57:26;;;;;;;2.65;2.20;;;20.90;65.90;;;;;;3171853;28;20051;-88
2021/08/23 03:58:58;;;;;;;2.22;2.03;;;20.90;65.90;;;;;;3171894;28;20061;-88
2021/08/23 04:00:30;;;;;;;2.35;2.15;;;21.00;65.70;;;;;;3163898;27;20036;-88
2021/08/23 04:02:01;;;;;;;2.10;1.90;;;21.10;65.60;;;;;;3163776;28;20077;-88
2021/08/23 04:03:32;;;;;;;2.03;1.83;;;21.20;65.30;;;;;;3162675;28;20402;-86
2021/08/23 04:05:06;;;;;;;2.10;1.90;;;21.30;65.00;;;;;;3159291;28;20119;-88
2021/08/23 04:06:44;;;;;;;2.05;1.85;;;21.40;64.60;;;;;;3171913;28;20067;-87
2021/08/23 04:08:15;;;;;;;1.98;1.80;;;21.50;64.10;;;;;;3171877;28;20258;-88
2021/08/23 04:09:47;;;;;;;1.80;1.70;;;21.60;63.90;;;;;;3171942;28;20478;-88
2021/08/23 04:11:19;;;;;;;1.85;1.75;;;21.70;63.50;;;;;;3161494;28;20082;-87
2021/08/23 04:12:50;;;;;;;2.00;1.80;;;21.80;63.30;;;;;;3159437;28;20055;-88
2021/08/23 04:14:22;;;;;;;2.38;2.17;;;21.90;63.00;;;;;;3159354;28;20419;-87
2021/08/23 04:15:55;;;;;;;2.17;1.98;;;22.00;63.20;;;;;;3166575;28;20417;-87
2021/08/23 04:17:27;;;;;;;1.85;1.75;;;22.00;62.60;;;;;;3171598;28;20040;-88
2021/08/23 04:18:57;;;;;;;2.28;1.70;;;22.10;62.50;;;;;;3168043;28;20060;-87
2021/08/23 04:20:30;;;;;;;2.10;1.90;;;22.20;62.40;;;;;;3161109;28;20046;-87
2021/08/23 04:22:01;;;;;;;1.83;1.73;;;22.20;62.20;;;;;;3164488;28;20047;-87
2021/08/23 04:23:33;;;;;;;1.85;1.75;;;22.30;62.00;;;;;;3159494;28;20558;-87
2021/08/23 04:25:05;;;;;;;1.73;1.63;;;22.40;61.70;;;;;;3170463;27;20066;-88
2021/08/23 04:26:37;;;;;;;1.90;1.80;;;22.50;61.70;;;;;;3169869;28;20054;-87
2021/08/23 04:28:09;;;;;;;1.92;1.50;;;22.50;61.50;;;;;;3167911;28;20051;-88
2021/08/23 04:29:40;;;;;;;2.00;1.80;;;22.60;61.30;;;;;;3171583;28;20047;-87
2021/08/23 04:31:12;;;;;;;1.70;1.60;;;22.70;61.00;;;;;;3163671;27;20048;-89
2021/08/23 04:32:44;;;;;;;1.80;1.70;;;22.70;60.90;;;;;;3159102;28;20056;-88
2021/08/23 04:34:15;;;;;;;1.70;1.60;;;22.80;60.80;;;;;;3162043;28;20055;-88
2021/08/23 04:35:49;;;;;;;1.70;1.60;;;22.90;60.60;;;;;;3158403;27;20067;-88
2021/08/23 04:37:20;;;;;;;1.85;1.75;;;22.90;60.40;;;;;;3158777;28;20048;-89
2021/08/23 04:38:52;;;;;;;1.70;1.60;;;23.00;60.30;;;;;;3158390;28;20048;-88
2021/08/23 04:40:24;;;;;;;1.70;1.60;;;23.00;60.20;;;;;;3166797;27;20418;-89
2021/08/23 04:41:55;;;;;;;2.20;1.70;;;23.00;60.20;;;;;;3170865;28;20055;-88
2021/08/23 04:43:27;;;;;;;1.60;1.50;;;23.10;60.20;;;;;;3168271;28;20052;-89
2021/08/23 04:44:59;;;;;;;1.45;1.35;;;23.10;60.10;;;;;;3164375;27;20043;-89
2021/08/23 04:46:30;;;;;;;2.50;1.77;;;23.20;60.10;;;;;;3157967;28;20048;-88
2021/08/23 04:48:02;;;;;;;1.75;1.42;;;23.20;60.00;;;;;;3158219;28;20061;-88
2021/08/23 04:49:34;;;;;;;1.80;1.60;;;23.20;59.90;;;;;;3168142;28;20048;-89
2021/08/23 04:51:07;;;;;;;1.77;1.67;;;23.20;59.80;;;;;;3164533;27;20048;-89
2021/08/23 04:52:42;;;;;;;1.98;1.77;;;23.20;59.80;;;;;;3171500;28;20525;-89
2021/08/23 04:54:13;;;;;;;1.83;1.60;;;23.20;59.80;;;;;;3171100;28;20414;-89
2021/08/23 04:55:45;;;;;;;1.48;1.38;;;23.30;59.80;;;;;;3168575;27;20267;-89
2021/08/23 04:57:18;;;;;;;1.85;1.73;;;23.20;59.80;;;;;;3171371;28;20047;-88
2021/08/23 04:58:52;;;;;;;1.67;1.58;;;23.20;59.90;;;;;;3160539;28;20052;-88
2021/08/23 05:00:23;;;;;;;1.60;1.50;;;23.20;59.90;;;;;;3159129;27;20153;-89
2021/08/23 05:01:55;;;;;;;1.85;1.73;;;23.20;59.90;;;;;;3158757;28;20047;-88
2021/08/23 05:03:27;;;;;;;1.73;1.63;;;23.20;59.90;;;;;;3167508;28;20093;-89
2021/08/23 05:04:59;;;;;;;1.67;1.58;;;23.20;60.10;;;;;;3170665;27;20059;-89
2021/08/23 05:06:32;;;;;;;1.55;1.45;;;23.20;60.10;;;;;;3160325;28;20056;-88
2021/08/23 05:08:04;;;;;;;1.70;1.60;;;23.10;60.20;;;;;;3158657;28;20059;-89
2021/08/23 05:09:36;;;;;;;1.80;1.70;;;23.10;61.10;;;;;;3160368;28;20040;-88
2021/08/23 05:11:08;;;;;;;1.67;1.58;;;23.10;60.50;;;;;;3163832;27;20101;-88
2021/08/23 05:12:39;;;;;;;1.65;1.52;;;23.10;60.60;;;;;;3158964;28;20379;-89
2021/08/23 05:14:11;;;;;;;2.10;1.75;;;23.00;60.70;;;;;;3169828;28;20056;-89
2021/08/23 05:15:43;;;;;;;1.70;1.60;;;23.00;61.00;;;;;;3169429;27;20418;-89
2021/08/23 05:17:14;;;;;;;1.52;1.42;;;22.90;61.00;;;;;;3171434;28;20043;-89
2021/08/23 05:18:46;;;;;;;1.70;1.60;;;22.90;61.10;;;;;;3166700;28;20062;-88
2021/08/23 05:20:18;;;;;;;1.83;1.65;;;22.90;61.20;;;;;;3172024;27;20047;-89
2021/08/23 05:21:50;;;;;;;1.90;1.80;;;22.80;61.40;;;;;;3173567;28;20059;-88
2021/08/23 05:23:22;;;;;;;1.63;1.52;;;22.80;61.50;;;;;;3165698;28;20183;-88
2021/08/23 05:24:54;;;;;;;1.95;1.70;;;22.80;61.50;;;;;;3165107;28;20052;-88
2021/08/23 05:26:27;;;;;;;1.77;1.67;;;22.80;61.60;;;;;;3171063;28;20052;-89
2021/08/23 05:27:59;;;;;;;1.88;1.65;;;22.80;61.60;;;;;;3171403;28;20043;-88
2021/08/23 05:29:31;;;;;;;1.75;1.65;;;22.80;61.50;;;;;;3172029;28;20438;-89
2021/08/23 05:31:02;;;;;;;1.80;1.67;;;22.80;61.90;;;;;;3170289;27;20047;-88
2021/08/23 05:32:34;;;;;;;1.75;1.60;;;22.80;61.70;;;;;;3171485;28;20507;-88
2021/08/23 05:34:06;;;;;;;2.00;1.80;;;22.80;61.60;;;;;;3170350;28;20051;-89
2021/08/23 05:35:38;;;;;;;1.80;1.70;;;22.80;61.70;;;;;;3170009;27;20414;-89
2021/08/23 05:37:11;;;;;;;1.60;1.50;;;22.70;61.80;;;;;;3171379;28;20051;-88
2021/08/23 05:38:43;;;;;;;1.55;1.45;;;22.80;61.90;;;;;;3170593;28;20047;-89
2021/08/23 05:40:16;;;;;;;1.70;1.60;;;22.80;61.70;;;;;;3160826;28;20109;-88
2021/08/23 05:41:48;;;;;;;1.60;1.50;;;22.70;61.80;;;;;;3158932;28;20052;-88
2021/08/23 05:43:19;;;;;;;1.60;1.50;;;22.70;61.90;;;;;;3166549;28;20043;-88
2021/08/23 05:44:53;;;;;;;1.88;1.70;;;22.80;61.90;;;;;;3171216;28;20044;-88
2021/08/23 05:46:25;;;;;;;1.70;1.60;;;22.70;61.80;;;;;;3164363;28;20411;-88
2021/08/23 05:47:57;;;;;;;1.60;1.50;;;22.70;62.00;;;;;;3159454;28;20040;-88
2021/08/23 05:49:28;;;;;;;1.77;1.67;;;22.70;62.00;;;;;;3171511;28;20047;-89
2021/08/23 05:51:01;;;;;;;1.63;1.40;;;22.70;61.90;;;;;;3163657;28;20059;-88
2021/08/23 05:52:34;;;;;;;;;;;22.80;61.90;;;;;;3171887;28;20055;-86
2021/08/23 05:54:06;;;;;;;1.70;1.60;;;22.80;61.90;;;;;;3164670;28;19920;-89
2021/08/23 05:55:38;;;;;;;1.92;1.73;;;22.80;61.70;;;;;;3168409;28;20297;-89
2021/08/23 05:57:09;;;;;;;1.50;1.40;;;22.90;61.50;;;;;;3170456;28;20048;-88
2021/08/23 05:58:41;;;;;;;2.42;1.55;;;23.00;61.40;;;;;;3170187;28;20043;-89
2021/08/23 06:00:17;;;;;;;1.70;1.60;;;23.00;61.40;;;;;;3167182;28;20066;-88
2021/08/23 06:01:52;;;;;;;1.63;1.52;;;23.00;61.30;;;;;;3161076;28;20055;-89
2021/08/23 06:03:24;;;;;;;1.60;1.50;;;23.00;61.30;;;;;;3160892;28;20048;-89
2021/08/23 06:04:56;;;;;;;1.45;1.35;;;23.00;61.20;;;;;;3160037;28;20070;-88
2021/08/23 06:06:28;;;;;;;1.60;1.40;;;23.00;61.10;;;;;;3168551;28;20504;-88
2021/08/23 06:08:01;;;;;;;1.50;1.40;;;23.10;61.10;;;;;;3170699;28;20078;-89
2021/08/23 06:09:32;;;;;;;1.70;1.60;;;23.10;61.20;;;;;;3173052;28;20040;-89
2021/08/23 06:11:04;;;;;;;1.58;1.48;;;23.00;61.10;;;;;;3163237;27;20043;-89
2021/08/23 06:12:36;;;;;;;1.77;1.67;;;23.00;61.30;;;;;;3165557;28;20043;-89
2021/08/23 06:14:08;;;;;;;1.85;1.70;;;23.00;61.30;;;;;;3160913;28;20055;-88
2021/08/23 06:15:39;;;;;;;1.70;1.60;;;23.00;61.30;;;;;;3165574;27;20043;-87
2021/08/23 06:17:11;;;;;;;1.50;1.40;;;23.00;61.40;;;;;;3173303;28;20058;-88
2021/08/23 06:18:43;;;;;;;1.60;1.50;;;23.00;61.60;;;;;;3166161;28;20479;-88
2021/08/23 06:20:15;;;;;;;2.00;1.80;;;23.00;61.40;;;;;;3171933;28;20051;-88
2021/08/23 06:21:46;;;;;;;1.70;1.60;;;23.00;61.40;;;;;;3164972;27;20055;-89
2021/08/23 06:23:19;;;;;;;1.70;1.60;;;23.00;61.50;;;;;;3160772;28;20086;-88
2021/08/23 06:24:51;;;;;;;1.67;1.58;;;22.90;61.60;;;;;;3164545;28;20047;-88
2021/08/23 06:26:23;;;;;;;1.70;1.60;;;22.90;61.70;;;;;;3160296;28;20051;-88
2021/08/23 06:27:55;;;;;;;1.60;1.50;;;22.90;61.90;;;;;;3163348;28;20051;-89
2021/08/23 06:29:27;;;;;;;1.60;1.50;;;22.90;61.90;;;;;;3171576;28;20077;-88
2021/08/23 06:30:58;;;;;;;1.60;1.50;;;22.80;61.90;;;;;;3166528;28;20047;-88
2021/08/23 06:32:30;;;;;;;1.38;1.27;;;22.80;61.90;;;;;;3162796;28;20074;-88
2021/08/23 06:34:02;;;;;;;1.60;1.50;;;22.80;62.10;;;;;;3165161;28;20052;-88
2021/08/23 06:35:34;;;;;;;2.63;1.42;;;22.80;62.10;;;;;;3171054;27;20422;-88
2021/08/23 06:37:05;;;;;;;1.55;1.45;;;22.80;62.10;;;;;;3173317;28;20059;-88
2021/08/23 06:38:39;;;;;;;1.70;1.60;;;22.80;62.30;;;;;;3160619;28;20044;-88
2021/08/23 06:40:11;;;;;;;1.83;1.50;;;22.80;62.20;;;;;;3172211;27;20048;-87
2021/08/23 06:41:43;;;;;;;1.63;1.52;;;22.80;62.20;;;;;;3163303;28;20048;-88
2021/08/23 06:43:14;;;;;;;2.55;1.58;;;22.80;62.10;;;;;;3159501;28;20043;-88
2021/08/23 06:44:46;;;;;;;1.75;1.65;;;22.90;62.00;;;;;;3160482;28;20483;-88
2021/08/23 06:46:18;;;;;;;1.50;1.40;;;22.90;61.90;;;;;;3158755;28;20047;-88
2021/08/23 06:47:52;;;;;;;1.50;1.40;;;22.90;61.90;;;;;;3169120;28;20066;-89
2021/08/23 06:49:23;;;;;;;1.92;1.40;;;22.80;62.60;;;;;;3168706;28;20518;-89
2021/08/23 06:50:55;;;;;;;1.50;1.40;;;22.80;62.00;;;;;;3169065;28;20255;-88
2021/08/23 06:52:27;;;;;;;1.50;1.40;;;22.80;62.10;;;;;;3168236;28;20044;-89
2021/08/23 06:54:00;;;;;;;1.83;1.60;;;22.80;62.20;;;;;;3173316;28;20044;-89
2021/08/23 06:55:33;;;;;;;2.25;1.48;;;22.80;62.40;;;;;;3166846;28;20055;-89
2021/08/23 06:57:06;;;;;;;2.70;1.73;;;22.80;62.80;;;;;;3170625;27;20489;-89
2021/08/23 06:58:38;;;;;;;3.25;1.40;;;22.80;63.20;;;;;;3162698;28;20075;-89
2021/08/23 07:00:11;;;;;;;3.03;1.60;;;22.70;63.60;;;;;;3162098;28;20483;-89
2021/08/23 07:01:43;;;;;;;3.60;1.55;;;22.70;63.70;;;;;;3168308;28;20067;-88
2021/08/23 07:03:15;;;;;;;4.57;1.42;;;22.70;63.80;;;;;;3166073;28;20092;-88
2021/08/23 07:04:49;;;;;;;2.33;1.30;;;22.70;63.80;;;;;;3170457;28;20104;-89
2021/08/23 07:06:21;;;;;;;3.65;1.58;;;22.70;63.90;;;;;;3169659;27;20071;-87
2021/08/23 07:07:53;;;;;;;2.10;1.23;;;22.70;64.10;;;;;;3169095;28;20051;-89
2021/08/23 07:09:26;;;;;;;3.83;1.40;;;22.70;64.30;;;;;;3172602;28;20693;-89
2021/08/23 07:11:01;;;;;;;2.50;1.45;;;22.70;64.30;;;;;;3172062;27;20052;-89
2021/08/23 07:12:32;;;;;;;2.85;1.50;;;22.70;64.20;;;;;;3167206;28;20056;-89
2021/08/23 07:14:04;;;;;;;4.03;1.50;;;22.70;64.30;;;;;;3161056;28;20410;-88
2021/08/23 07:15:36;;;;;;;3.15;1.30;;;22.70;64.20;;;;;;3159071;27;20044;-89
2021/08/23 07:17:07;;;;;;;4.20;1.75;;;22.70;64.30;;;;;;3167705;28;20058;-89
2021/08/23 07:18:39;;;;;;;2.78;1.15;;;22.70;64.20;;;;;;3170499;28;20051;-90
2021/08/23 07:20:12;;;;;;;7.35;1.55;;;22.70;64.20;;;;;;3182469;27;20043;-89
2021/08/23 07:21:43;;;;;;;3.33;1.55;;;22.70;64.30;;;;;;3180916;27;20782;-87
2021/08/23 07:23:15;;;;;;;3.58;1.20;;;22.70;64.40;;;;;;3185744;27;20055;-88
2021/08/23 07:24:48;;;;;;;2.45;1.33;;;22.70;64.40;;;;;;3174390;27;20116;-90
2021/08/23 07:26:20;;;;;;;1.77;1.33;;;22.70;64.40;;;;;;3162256;27;20043;-89
2021/08/23 07:27:52;;;;;;;3.15;1.50;;;22.70;64.50;;;;;;3165431;28;20055;-89
2021/08/23 07:29:25;;;;;;;5.05;1.50;;;22.70;64.60;;;;;;3165481;28;20442;-89
2021/08/23 07:30:57;;;;;;;3.63;1.40;;;22.80;64.30;;;;;;3168745;28;20476;-89
2021/08/23 07:32:28;;;;;;;2.30;1.33;;;22.80;64.20;;;;;;3162579;28;20058;-87
2021/08/23 07:34:00;;;;;;;3.10;1.30;;;22.90;64.20;;;;;;3166638;28;20043;-88
2021/08/23 07:35:32;;;;;;;5.10;1.40;;;22.90;64.00;;;;;;3171583;27;20056;-87
2021/08/23 07:37:04;;;;;;;3.10;1.25;;;22.80;64.00;;;;;;3160161;28;20051;-87
2021/08/23 07:38:36;;;;;;;4.97;1.27;;;22.90;64.50;;;;;;3165384;28;20059;-87
2021/08/23 07:40:10;;;;;;;5.65;1.40;;;22.90;63.50;;;;;;3170478;27;20052;-86
2021/08/23 07:41:41;;;;;;;3.33;1.00;;;22.90;63.70;;;;;;3170709;28;22069;-85
2021/08/23 07:43:14;;;;;;;3.88;1.35;;;22.90;63.50;;;;;;3169519;28;20047;-87
2021/08/23 07:44:46;;;;;;;3.92;1.35;;;22.90;63.80;;;;;;3168988;28;20047;-87
2021/08/23 07:46:17;;;;;;;4.25;1.40;;;22.90;63.80;;;;;;3171252;27;20172;-86
2021/08/23 07:47:49;;;;;;;6.75;1.20;;;23.00;63.90;;;;;;3172904;28;20047;-87
2021/08/23 07:49:21;;;;;;;6.63;1.35;;;23.10;63.70;;;;;;3169855;27;20043;-87
2021/08/23 07:50:53;;;;;;;6.50;1.55;;;23.10;63.70;;;;;;3180666;27;20047;-87
2021/08/23 07:52:24;;;;;;;3.17;1.63;;;23.10;63.50;;;;;;3171295;27;20038;-86
2021/08/23 07:53:56;;;;;;;4.25;1.35;;;23.20;63.20;;;;;;3161172;28;20054;-87
2021/08/23 07:55:29;;;;;;;5.35;1.45;;;23.10;63.60;;;;;;3171564;27;20036;-87
2021/08/23 07:57:01;;;;;;;4.80;1.80;;;23.10;63.70;;;;;;3182127;27;20069;-87
2021/08/23 07:58:33;;;;;;;6.05;1.50;;;23.10;63.60;;;;;;3178309;27;20055;-86
2021/08/23 08:00:06;;;;;;;7.22;1.30;;;23.10;64.00;;;;;;3170122;27;20137;-90